Time;durP1;ratioP1;P1;durP2;ratioP2;P2;SDS_P1;SDS_P2;PMS_P1;PMS_P2;Temp;Humidity;BMP_temperature;BMP_pressure;BME280_temperature;BME280_humidity;BME280_pressure;Samples;Min_cycle;Max_cycle;Signal;HPM_P1;HPM_P2
2022/04/27 00:00:26;;;;;;;6.60;4.20;;;;;;;;;;4984754;28;20236;-79
2022/04/27 00:02:52;;;;;;;3.58;3.28;;;;;;;;;;4987562;28;20231;-79
2022/04/27 00:05:18;;;;;;;5.07;3.63;;;;;;;;;;4987553;28;20206;-79
2022/04/27 00:07:44;;;;;;;4.97;3.97;;;;;;;;;;4969454;28;20188;-79
2022/04/27 00:10:11;;;;;;;5.00;4.05;;;;;;;;;;4972650;28;20265;-79
2022/04/27 00:12:38;;;;;;;6.53;4.05;;;;;;;;;;4985928;28;20183;-79
2022/04/27 00:15:04;;;;;;;6.50;3.92;;;;;;;;;;4984624;28;20219;-79
2022/04/27 00:17:30;;;;;;;5.30;3.78;;;;;;;;;;4987031;28;20216;-79
2022/04/27 00:19:56;;;;;;;8.82;4.57;;;;;;;;;;5000864;28;20187;-79
2022/04/27 00:22:22;;;;;;;6.07;4.10;;;;;;;;;;4987811;28;20187;-79
2022/04/27 00:24:49;;;;;;;5.00;4.47;;;;;;;;;;5001532;28;20190;-79
2022/04/27 00:27:15;;;;;;;5.70;4.18;;;;;;;;;;4985287;28;20237;-79
2022/04/27 00:29:41;;;;;;;7.20;4.00;;;;;;;;;;5006135;28;20171;-79
2022/04/27 00:32:07;;;;;;;5.90;4.70;;;;;;;;;;5002314;28;20231;-79
2022/04/27 00:34:33;;;;;;;6.35;4.20;;;;;;;;;;4988230;28;20179;-79
2022/04/27 00:36:59;;;;;;;5.97;5.18;;;;;;;;;;4987846;28;20660;-80
2022/04/27 00:39:25;;;;;;;5.35;3.90;;;;;;;;;;5001697;28;20192;-79
2022/04/27 00:42:00;;;;;;;4.23;3.80;;;;;;;;;;5004109;28;20206;-79
2022/04/27 00:44:26;;;;;;;7.32;4.65;;;;;;;;;;4987764;28;20953;-79
2022/04/27 00:46:52;;;;;;;4.47;4.07;;;;;;;;;;5001099;28;20273;-79
2022/04/27 00:49:18;;;;;;;5.40;4.55;;;;;;;;;;4988292;28;20437;-79
2022/04/27 00:51:44;;;;;;;7.45;4.47;;;;;;;;;;5001486;28;20179;-79
2022/04/27 00:54:11;;;;;;;7.68;5.00;;;;;;;;;;4968256;28;20187;-79
2022/04/27 00:56:39;;;;;;;6.25;3.95;;;;;;;;;;4972697;28;20346;-79
2022/04/27 00:59:04;;;;;;;6.65;4.88;;;;;;;;;;5001339;28;20242;-78
2022/04/27 01:01:30;;;;;;;5.60;4.90;;;;;;;;;;4987274;28;20199;-79
2022/04/27 01:03:56;;;;;;;9.55;4.85;;;;;;;;;;5000172;28;20900;-79
2022/04/27 01:06:23;;;;;;;5.15;4.53;;;;;;;;;;4985703;28;20187;-78
2022/04/27 01:08:49;;;;;;;6.95;4.28;;;;;;;;;;5003604;28;20191;-79
2022/04/27 01:11:18;;;;;;;7.72;4.25;;;;;;;;;;5004323;28;20257;-79
2022/04/27 01:13:45;;;;;;;4.78;3.35;;;;;;;;;;5001111;28;20187;-79
2022/04/27 01:16:11;;;;;;;6.03;5.45;;;;;;;;;;5004543;28;20309;-79
2022/04/27 01:18:37;;;;;;;5.70;3.95;;;;;;;;;;5001262;28;20191;-78
2022/04/27 01:21:03;;;;;;;4.65;4.25;;;;;;;;;;4984730;28;20234;-78
2022/04/27 01:23:29;;;;;;;5.75;4.32;;;;;;;;;;4998697;28;20174;-78
2022/04/27 01:25:56;;;;;;;5.40;3.88;;;;;;;;;;4984351;28;20633;-78
2022/04/27 01:28:23;;;;;;;7.40;4.70;;;;;;;;;;4994340;28;20557;-78
2022/04/27 01:30:55;;;;;;;6.38;4.93;;;;;;;;;;4988605;28;20270;-78
2022/04/27 01:33:21;;;;;;;8.00;4.40;;;;;;;;;;4985220;28;20190;-79
2022/04/27 01:35:47;;;;;;;8.15;3.92;;;;;;;;;;4985465;28;20175;-79
2022/04/27 01:38:17;;;;;;;5.10;4.60;;;;;;;;;;4972897;28;20187;-79
2022/04/27 01:40:43;;;;;;;5.78;4.50;;;;;;;;;;4988116;28;20467;-79
2022/04/27 01:43:09;;;;;;;4.88;4.35;;;;;;;;;;4992919;28;20185;-79
2022/04/27 01:45:35;;;;;;;4.95;4.18;;;;;;;;;;4986937;28;20194;-79
2022/04/27 01:48:01;;;;;;;6.05;4.22;;;;;;;;;;4984630;28;20167;-79
2022/04/27 01:50:27;;;;;;;6.35;5.68;;;;;;;;;;5002658;28;20179;-79
2022/04/27 01:55:38;;;;;;;6.00;4.80;;;;;;;;;;5000598;28;20522;-78
2022/04/27 01:58:04;;;;;;;6.07;4.60;;;;;;;;;;4982315;28;20718;-78
2022/04/27 02:00:30;;;;;;;5.15;4.40;;;;;;;;;;4985481;28;20290;-78
2022/04/27 02:02:56;;;;;;;8.25;4.50;;;;;;;;;;4984582;28;20178;-79
2022/04/27 02:05:22;;;;;;;6.47;5.15;;;;;;;;;;4985630;28;20190;-78
2022/04/27 02:07:48;;;;;;;4.82;4.32;;;;;;;;;;4986638;28;20679;-78
2022/04/27 02:10:14;;;;;;;5.55;4.78;;;;;;;;;;4987174;28;20190;-78
2022/04/27 02:12:40;;;;;;;4.97;4.25;;;;;;;;;;5000906;28;20218;-78
2022/04/27 02:15:09;;;;;;;5.35;4.75;;;;;;;;;;5000727;28;20184;-78
2022/04/27 02:17:35;;;;;;;5.47;4.20;;;;;;;;;;4981813;28;20215;-78
2022/04/27 02:20:01;;;;;;;6.03;4.65;;;;;;;;;;5000196;28;20666;-78
2022/04/27 02:22:27;;;;;;;5.40;4.35;;;;;;;;;;4986824;28;20183;-78
2022/04/27 02:24:53;;;;;;;4.97;4.57;;;;;;;;;;4985745;28;20179;-79
2022/04/27 02:27:20;;;;;;;5.78;4.82;;;;;;;;;;5000446;28;20271;-79
2022/04/27 02:29:46;;;;;;;6.90;5.18;;;;;;;;;;4985690;28;20482;-79
2022/04/27 02:32:12;;;;;;;6.10;4.40;;;;;;;;;;4989123;28;20172;-79
2022/04/27 02:34:38;;;;;;;8.90;5.07;;;;;;;;;;4994078;28;20271;-79
2022/04/27 02:37:05;;;;;;;8.05;4.80;;;;;;;;;;5004184;28;20187;-78
2022/04/27 02:39:32;;;;;;;5.15;4.65;;;;;;;;;;5004436;28;20540;-78
2022/04/27 02:41:59;;;;;;;4.97;4.30;;;;;;;;;;5006589;28;20199;-78
2022/04/27 02:44:25;;;;;;;4.50;4.10;;;;;;;;;;4991065;28;20172;-78
2022/04/27 02:46:51;;;;;;;7.55;5.35;;;;;;;;;;4990848;28;20191;-79
2022/04/27 02:52:01;;;;;;;8.77;5.72;;;;;;;;;;5004043;28;20242;-78
2022/04/27 02:54:27;;;;;;;6.93;5.00;;;;;;;;;;5001311;28;20183;-78
2022/04/27 02:56:54;;;;;;;7.03;5.13;;;;;;;;;;5005729;28;20214;-79
2022/04/27 02:59:20;;;;;;;8.02;4.50;;;;;;;;;;5004722;28;20524;-78
2022/04/27 03:01:48;;;;;;;8.77;5.85;;;;;;;;;;5003711;28;20214;-78
2022/04/27 03:04:14;;;;;;;8.35;5.85;;;;;;;;;;5002307;28;20187;-78
2022/04/27 03:06:40;;;;;;;7.60;5.95;;;;;;;;;;4990108;28;20186;-78
2022/04/27 03:09:06;;;;;;;6.38;5.78;;;;;;;;;;4986345;28;20199;-78
2022/04/27 03:11:32;;;;;;;9.57;6.68;;;;;;;;;;5005728;28;20167;-78
2022/04/27 03:13:58;;;;;;;9.05;6.03;;;;;;;;;;5003581;28;20194;-78
2022/04/27 03:16:24;;;;;;;9.02;5.72;;;;;;;;;;5003023;28;20227;-78
2022/04/27 03:18:50;;;;;;;8.18;6.38;;;;;;;;;;5003033;28;20658;-78
2022/04/27 03:21:16;;;;;;;6.85;5.72;;;;;;;;;;5003527;28;20371;-79
2022/04/27 03:23:42;;;;;;;7.70;5.18;;;;;;;;;;4986306;28;20304;-78
2022/04/27 03:26:08;;;;;;;8.07;6.50;;;;;;;;;;4984206;28;20243;-78
2022/04/27 03:28:34;;;;;;;14.20;6.27;;;;;;;;;;4997846;28;20438;-78
2022/04/27 03:31:00;;;;;;;7.73;6.00;;;;;;;;;;4985571;28;20457;-78
2022/04/27 03:33:26;;;;;;;8.02;6.50;;;;;;;;;;4987745;28;20490;-78
2022/04/27 03:35:52;;;;;;;22.38;7.43;;;;;;;;;;5004400;28;20183;-78
2022/04/27 03:38:18;;;;;;;9.50;7.00;;;;;;;;;;5005805;28;20607;-78
2022/04/27 03:40:47;;;;;;;12.13;6.50;;;;;;;;;;5002603;28;20477;-78
2022/04/27 03:43:15;;;;;;;10.20;7.03;;;;;;;;;;5002463;28;20253;-78
2022/04/27 03:45:41;;;;;;;8.77;7.20;;;;;;;;;;5001880;28;20246;-78
2022/04/27 03:48:07;;;;;;;9.40;6.95;;;;;;;;;;4985473;28;20195;-78
2022/04/27 03:50:34;;;;;;;11.63;6.82;;;;;;;;;;4974106;28;20179;-79
2022/04/27 03:53:00;;;;;;;9.48;7.65;;;;;;;;;;5001438;28;20191;-79
2022/04/27 03:55:28;;;;;;;13.48;8.90;;;;;;;;;;4989965;28;20254;-78
2022/04/27 03:57:54;;;;;;;11.05;7.75;;;;;;;;;;4990491;28;20200;-78
2022/04/27 04:00:20;;;;;;;15.43;7.78;;;;;;;;;;5004019;28;20202;-78
2022/04/27 04:02:46;;;;;;;11.20;7.75;;;;;;;;;;4987908;28;20195;-76
2022/04/27 04:05:12;;;;;;;11.10;7.60;;;;;;;;;;5008268;28;20190;-78
2022/04/27 04:07:39;;;;;;;9.00;7.45;;;;;;;;;;4986323;28;20446;-78
2022/04/27 04:10:06;;;;;;;12.90;8.10;;;;;;;;;;5002828;28;20246;-78
2022/04/27 04:12:32;;;;;;;12.15;8.60;;;;;;;;;;4987550;28;20176;-78
2022/04/27 04:14:58;;;;;;;11.93;7.65;;;;;;;;;;5004561;28;20234;-78
2022/04/27 04:17:24;;;;;;;10.25;8.52;;;;;;;;;;5003231;28;20215;-78
2022/04/27 04:19:50;;;;;;;11.07;7.28;;;;;;;;;;4988510;28;20187;-78
2022/04/27 04:22:16;;;;;;;11.00;9.88;;;;;;;;;;4988457;28;20179;-78
2022/04/27 04:30:11;;;;;;;10.32;8.25;;;;;;;;;;4987833;28;20194;-78
2022/04/27 04:32:38;;;;;;;12.73;8.45;;;;;;;;;;4987638;28;20247;-78
2022/04/27 04:35:04;;;;;;;11.75;8.70;;;;;;;;;;4983595;28;20276;-78
2022/04/27 04:37:32;;;;;;;12.60;7.90;;;;;;;;;;5001875;28;20187;-78
2022/04/27 04:39:58;;;;;;;17.50;10.75;;;;;;;;;;5001748;28;20199;-78
2022/04/27 04:42:24;;;;;;;13.82;9.07;;;;;;;;;;4986244;28;20268;-78
2022/04/27 04:44:50;;;;;;;9.93;7.88;;;;;;;;;;4986347;28;20171;-78
2022/04/27 04:47:16;;;;;;;13.00;8.70;;;;;;;;;;5003757;28;20203;-78
2022/04/27 04:49:42;;;;;;;14.25;10.35;;;;;;;;;;5001454;28;20248;-78
2022/04/27 04:52:08;;;;;;;13.88;9.25;;;;;;;;;;5001990;28;20187;-78
2022/04/27 04:54:35;;;;;;;12.38;8.55;;;;;;;;;;5000216;28;20289;-78
2022/04/27 04:57:01;;;;;;;13.10;10.50;;;;;;;;;;5002647;28;20175;-78
2022/04/27 04:59:27;;;;;;;10.73;9.20;;;;;;;;;;4980806;28;20186;-78
2022/04/27 05:01:53;;;;;;;14.07;9.90;;;;;;;;;;4985185;28;20219;-78
2022/04/27 05:04:19;;;;;;;9.50;8.02;;;;;;;;;;4987000;28;20183;-78
2022/04/27 05:06:48;;;;;;;13.20;9.88;;;;;;;;;;5000959;28;20246;-78
2022/04/27 05:09:14;;;;;;;12.00;8.15;;;;;;;;;;4976249;28;20553;-78
2022/04/27 05:11:40;;;;;;;16.45;10.77;;;;;;;;;;4983591;28;20222;-78
2022/04/27 05:14:06;;;;;;;15.57;11.45;;;;;;;;;;5001821;28;20190;-78
2022/04/27 05:16:33;;;;;;;17.92;9.95;;;;;;;;;;4982918;28;20692;-78
2022/04/27 05:18:59;;;;;;;11.60;9.23;;;;;;;;;;4987100;28;20534;-78
2022/04/27 05:21:25;;;;;;;14.57;10.00;;;;;;;;;;4985817;28;20350;-78
2022/04/27 05:23:51;;;;;;;15.52;9.77;;;;;;;;;;4985787;28;20215;-78
2022/04/27 05:26:17;;;;;;;12.55;9.57;;;;;;;;;;4986042;28;20234;-78
2022/04/27 05:34:13;;;;;;;12.98;10.07;;;;;;;;;;5000489;28;20201;-78
2022/04/27 05:36:39;;;;;;;14.75;10.02;;;;;;;;;;5000679;28;20645;-78
2022/04/27 05:39:05;;;;;;;12.05;9.85;;;;;;;;;;4984726;28;20192;-78
2022/04/27 05:41:31;;;;;;;14.82;10.75;;;;;;;;;;5003524;28;20238;-78
2022/04/27 05:43:57;;;;;;;17.20;11.27;;;;;;;;;;4986775;28;20183;-78
2022/04/27 05:46:23;;;;;;;16.00;11.38;;;;;;;;;;4982575;28;20182;-78
2022/04/27 05:48:50;;;;;;;15.82;11.48;;;;;;;;;;5001959;28;20687;-78
2022/04/27 05:51:16;;;;;;;15.90;10.40;;;;;;;;;;4984770;28;20183;-78
2022/04/27 05:53:42;;;;;;;18.50;11.18;;;;;;;;;;4986959;28;20206;-78
2022/04/27 05:56:08;;;;;;;16.88;11.27;;;;;;;;;;4986436;28;20197;-78
2022/04/27 05:58:34;;;;;;;19.58;12.88;;;;;;;;;;5000269;28;20197;-78
2022/04/27 06:01:00;;;;;;;18.45;12.88;;;;;;;;;;5001949;28;20236;-77
2022/04/27 06:03:26;;;;;;;15.50;11.00;;;;;;;;;;4984952;28;20211;-78
2022/04/27 06:05:52;;;;;;;20.05;12.00;;;;;;;;;;5001932;28;20421;-76
2022/04/27 06:08:18;;;;;;;16.97;11.20;;;;;;;;;;4985415;28;20175;-77
2022/04/27 06:10:44;;;;;;;21.15;11.80;;;;;;;;;;5000453;28;20908;-78
2022/04/27 06:13:11;;;;;;;16.35;11.65;;;;;;;;;;4986257;28;20187;-77
2022/04/27 06:15:37;;;;;;;17.67;10.85;;;;;;;;;;5000115;28;20187;-78
2022/04/27 06:18:03;;;;;;;14.32;11.77;;;;;;;;;;4984569;28;20182;-78
2022/04/27 06:20:29;;;;;;;20.92;12.98;;;;;;;;;;5002937;28;20217;-78
2022/04/27 06:22:57;;;;;;;20.17;11.88;;;;;;;;;;5002436;28;20179;-78
2022/04/27 06:25:23;;;;;;;18.35;11.85;;;;;;;;;;4999993;28;20334;-78
2022/04/27 06:27:49;;;;;;;22.80;13.00;;;;;;;;;;4999726;28;20189;-78
2022/04/27 06:30:15;;;;;;;16.63;11.77;;;;;;;;;;4983686;28;20564;-78
2022/04/27 06:32:41;;;;;;;22.23;13.80;;;;;;;;;;4986360;28;20438;-78
2022/04/27 06:35:09;;;;;;;19.30;11.73;;;;;;;;;;4999014;28;20197;-78
2022/04/27 06:37:35;;;;;;;16.17;12.70;;;;;;;;;;4999847;28;20466;-78
2022/04/27 06:40:01;;;;;;;16.57;12.73;;;;;;;;;;5000731;28;20191;-78
2022/04/27 06:42:27;;;;;;;19.67;12.05;;;;;;;;;;4984837;28;20435;-77
2022/04/27 06:44:53;;;;;;;18.60;13.40;;;;;;;;;;5002336;28;20174;-78
2022/04/27 06:47:19;;;;;;;17.77;12.57;;;;;;;;;;5000737;28;20183;-78
2022/04/27 06:49:45;;;;;;;19.20;13.38;;;;;;;;;;4986866;28;20455;-78
2022/04/27 06:52:11;;;;;;;19.95;13.70;;;;;;;;;;4986393;28;20250;-77
2022/04/27 06:54:37;;;;;;;19.88;13.02;;;;;;;;;;4999696;28;20182;-78
2022/04/27 06:57:03;;;;;;;20.20;13.50;;;;;;;;;;4983592;28;20206;-78
2022/04/27 06:59:29;;;;;;;20.38;13.15;;;;;;;;;;5002663;28;20434;-79
2022/04/27 07:01:55;;;;;;;20.30;14.13;;;;;;;;;;4986325;28;20711;-78
2022/04/27 07:04:21;;;;;;;18.88;12.88;;;;;;;;;;4999148;28;20448;-78
2022/04/27 07:06:47;;;;;;;15.98;12.23;;;;;;;;;;5000233;28;20679;-78
2022/04/27 07:09:13;;;;;;;19.63;12.48;;;;;;;;;;5000241;28;20191;-78
2022/04/27 07:11:40;;;;;;;19.45;14.05;;;;;;;;;;4971370;28;20188;-78
2022/04/27 07:14:06;;;;;;;19.00;11.30;;;;;;;;;;4987724;28;20652;-79
2022/04/27 07:16:32;;;;;;;20.92;12.65;;;;;;;;;;4990694;28;20227;-78
2022/04/27 07:18:58;;;;;;;19.97;13.47;;;;;;;;;;4990709;28;20416;-78
2022/04/27 07:21:24;;;;;;;18.67;12.88;;;;;;;;;;4985856;28;20468;-79
2022/04/27 07:23:50;;;;;;;17.10;12.68;;;;;;;;;;5006066;28;20183;-80
2022/04/27 07:26:16;;;;;;;16.92;13.23;;;;;;;;;;4988116;28;20163;-79
2022/04/27 07:28:42;;;;;;;19.25;14.10;;;;;;;;;;4989461;28;20194;-79
2022/04/27 07:31:09;;;;;;;20.48;14.15;;;;;;;;;;4989276;28;20648;-80
2022/04/27 07:33:35;;;;;;;19.10;12.57;;;;;;;;;;5003123;28;20186;-78
2022/04/27 07:36:01;;;;;;;17.42;12.35;;;;;;;;;;4987226;28;20203;-79
2022/04/27 07:38:27;;;;;;;22.70;12.93;;;;;;;;;;4986958;28;20226;-79
2022/04/27 07:40:53;;;;;;;18.88;13.48;;;;;;;;;;4989076;28;20663;-78
2022/04/27 07:43:19;;;;;;;21.13;15.23;;;;;;;;;;5004954;28;20186;-78
2022/04/27 07:45:45;;;;;;;19.45;14.05;;;;;;;;;;5002633;28;20175;-78
2022/04/27 07:48:11;;;;;;;22.40;14.38;;;;;;;;;;5003690;28;20266;-78
2022/04/27 07:50:38;;;;;;;19.42;13.35;;;;;;;;;;4976401;28;20278;-79
2022/04/27 07:53:04;;;;;;;21.80;15.65;;;;;;;;;;4985055;28;20183;-79
2022/04/27 07:55:30;;;;;;;17.40;13.00;;;;;;;;;;4989286;28;20191;-79
2022/04/27 07:57:56;;;;;;;21.48;15.10;;;;;;;;;;4990125;28;20278;-79
2022/04/27 08:00:22;;;;;;;19.20;14.10;;;;;;;;;;4988629;28;20199;-79
2022/04/27 08:02:49;;;;;;;18.25;13.20;;;;;;;;;;4987520;28;20179;-78
2022/04/27 08:05:15;;;;;;;21.75;13.52;;;;;;;;;;4986925;28;20207;-80
2022/04/27 08:07:46;;;;;;;17.38;13.80;;;;;;;;;;5002064;28;20171;-83
2022/04/27 08:10:19;;;;;;;21.90;13.48;;;;;;;;;;4988732;28;20256;-80
2022/04/27 08:12:49;;;;;;;17.90;12.63;;;;;;;;;;5002793;28;20183;-79
2022/04/27 08:15:16;;;;;;;20.52;14.50;;;;;;;;;;4987723;28;20179;-80
2022/04/27 08:17:51;;;;;;;17.73;13.80;;;;;;;;;;5006088;28;20258;-80
2022/04/27 08:23:10;;;;;;;21.02;14.60;;;;;;;;;;5002227;28;20561;-80
2022/04/27 08:25:37;;;;;;;19.05;13.65;;;;;;;;;;4988487;28;20198;-80
2022/04/27 08:28:06;;;;;;;20.40;14.80;;;;;;;;;;5001556;28;20175;-79
2022/04/27 08:30:33;;;;;;;19.85;14.35;;;;;;;;;;5001394;28;20190;-80
2022/04/27 08:33:01;;;;;;;17.13;13.55;;;;;;;;;;4986882;28;20440;-79
2022/04/27 08:35:28;;;;;;;22.05;14.90;;;;;;;;;;5003609;28;20171;-80
2022/04/27 08:37:55;;;;;;;26.25;15.20;;;;;;;;;;4987497;28;20245;-80
2022/04/27 08:40:21;;;;;;;18.67;15.05;;;;;;;;;;4987558;28;20261;-80
2022/04/27 08:42:50;;;;;;;18.25;13.60;;;;;;;;;;4984156;28;20187;-80
2022/04/27 08:45:17;;;;;;;24.80;15.05;;;;;;;;;;4968434;28;20203;-80
2022/04/27 08:47:43;;;;;;;19.30;14.52;;;;;;;;;;5005610;28;20206;-80
2022/04/27 08:50:16;;;;;;;16.00;12.82;;;;;;;;;;4988021;28;20730;-80
2022/04/27 08:52:43;;;;;;;19.63;14.00;;;;;;;;;;5001202;28;20187;-79
2022/04/27 08:55:09;;;;;;;19.58;15.93;;;;;;;;;;5001567;28;20441;-79
2022/04/27 08:57:35;;;;;;;19.90;15.25;;;;;;;;;;4987378;28;20195;-80
2022/04/27 09:00:03;;;;;;;20.95;15.30;;;;;;;;;;4985946;28;20172;-79
2022/04/27 09:02:29;;;;;;;19.40;14.18;;;;;;;;;;5003508;28;20218;-79
2022/04/27 09:05:13;;;;;;;19.27;14.80;;;;;;;;;;5000612;28;20183;-82
2022/04/27 09:07:46;;;;;;;21.45;14.73;;;;;;;;;;4983772;28;20187;-81
2022/04/27 09:10:14;;;;;;;16.65;14.68;;;;;;;;;;5001276;28;20185;-80
2022/04/27 09:12:45;;;;;;;16.95;14.52;;;;;;;;;;4987448;28;20192;-79
2022/04/27 09:15:11;;;;;;;20.45;14.57;;;;;;;;;;4985311;28;20211;-80
2022/04/27 09:23:19;;;;;;;17.73;15.77;;;;;;;;;;5001088;28;20198;-79
2022/04/27 09:25:46;;;;;;;17.58;14.10;;;;;;;;;;4987572;28;20183;-80
2022/04/27 09:28:12;;;;;;;22.02;16.17;;;;;;;;;;5000411;28;20218;-80
2022/04/27 09:30:38;;;;;;;18.15;14.80;;;;;;;;;;5001468;28;20365;-79
2022/04/27 09:33:04;;;;;;;15.70;13.70;;;;;;;;;;4984323;28;20173;-79
2022/04/27 09:35:34;;;;;;;20.90;15.13;;;;;;;;;;5002563;28;20430;-79
2022/04/27 09:38:16;;;;;;;19.05;14.90;;;;;;;;;;4988323;28;20943;-79
2022/04/27 09:40:50;;;;;;;21.45;15.13;;;;;;;;;;4987563;28;20202;-79
2022/04/27 09:43:16;;;;;;;19.17;14.80;;;;;;;;;;4999832;28;20175;-79
2022/04/27 09:45:43;;;;;;;21.08;15.48;;;;;;;;;;4983064;28;20215;-79
2022/04/27 09:48:11;;;;;;;16.90;15.10;;;;;;;;;;5001126;28;20240;-80
2022/04/27 09:50:47;;;;;;;20.58;15.45;;;;;;;;;;5003911;28;20175;-79
2022/04/27 09:53:14;;;;;;;18.08;16.10;;;;;;;;;;5001454;28;20186;-79
2022/04/27 09:55:50;;;;;;;21.33;15.88;;;;;;;;;;5000870;28;20182;-81
2022/04/27 09:58:18;;;;;;;18.77;15.70;;;;;;;;;;5000018;28;20204;-79
2022/04/27 10:00:45;;;;;;;25.00;15.43;;;;;;;;;;5000482;28;20190;-79
2022/04/27 10:03:15;;;;;;;21.48;15.82;;;;;;;;;;4984471;28;20189;-80
2022/04/27 10:05:42;;;;;;;18.40;14.43;;;;;;;;;;5003997;28;20182;-84
2022/04/27 10:08:09;;;;;;;19.20;15.25;;;;;;;;;;4999407;28;20405;-80
2022/04/27 10:10:45;;;;;;;17.73;14.65;;;;;;;;;;5000326;28;20224;-80
2022/04/27 10:13:12;;;;;;;19.83;15.90;;;;;;;;;;5000286;28;20210;-80
2022/04/27 10:15:42;;;;;;;19.13;15.10;;;;;;;;;;4986554;28;20210;-79
2022/04/27 10:18:10;;;;;;;20.38;16.60;;;;;;;;;;4982864;28;20195;-79
2022/04/27 10:20:36;;;;;;;20.52;14.60;;;;;;;;;;5003589;28;20269;-80
2022/04/27 10:23:21;;;;;;;17.83;14.10;;;;;;;;;;5000325;28;20171;-79
2022/04/27 10:26:06;;;;;;;18.25;15.55;;;;;;;;;;5000329;28;20179;-82
2022/04/27 10:28:34;;;;;;;19.75;15.40;;;;;;;;;;4986184;28;20189;-83
2022/04/27 10:31:07;;;;;;;17.75;14.85;;;;;;;;;;5000114;28;20187;-82
2022/04/27 10:33:40;;;;;;;18.23;16.20;;;;;;;;;;4984751;28;20715;-81
2022/04/27 10:36:22;;;;;;;19.00;16.50;;;;;;;;;;5001447;28;20202;-81
2022/04/27 10:39:06;;;;;;;17.27;14.90;;;;;;;;;;4999955;28;20190;-80
2022/04/27 10:41:32;;;;;;;17.80;15.68;;;;;;;;;;4971644;28;20241;-85
2022/04/27 10:43:59;;;;;;;17.60;14.65;;;;;;;;;;4987933;28;20556;-81
2022/04/27 10:46:38;;;;;;;17.35;14.95;;;;;;;;;;4993856;28;20190;-79
2022/04/27 10:49:34;;;;;;;18.38;15.20;;;;;;;;;;4982779;28;20190;-79
2022/04/27 10:52:01;;;;;;;16.20;14.45;;;;;;;;;;4980349;28;20203;-81
2022/04/27 10:54:28;;;;;;;15.93;13.43;;;;;;;;;;4989307;28;20190;-84
2022/04/27 10:56:54;;;;;;;19.02;14.40;;;;;;;;;;4988538;28;20171;-80
2022/04/27 10:59:38;;;;;;;16.13;14.43;;;;;;;;;;5004840;28;20195;-80
2022/04/27 11:02:05;;;;;;;21.25;14.60;;;;;;;;;;4989611;28;20251;-80
2022/04/27 11:04:34;;;;;;;15.73;14.00;;;;;;;;;;5003195;28;20211;-79
2022/04/27 11:07:16;;;;;;;14.55;12.52;;;;;;;;;;5003869;28;20265;-78
2022/04/27 11:09:54;;;;;;;14.98;13.40;;;;;;;;;;4989692;28;20525;-84
2022/04/27 11:12:20;;;;;;;18.00;13.25;;;;;;;;;;4988737;28;20182;-80
2022/04/27 11:14:47;;;;;;;16.90;12.65;;;;;;;;;;5006664;28;20206;-80
2022/04/27 11:17:25;;;;;;;16.92;14.27;;;;;;;;;;5003190;28;20276;-80
2022/04/27 11:19:52;;;;;;;17.30;13.80;;;;;;;;;;5002790;28;20258;-90
2022/04/27 11:22:18;;;;;;;17.73;12.85;;;;;;;;;;5002861;28;20226;-83
2022/04/27 11:24:48;;;;;;;17.73;13.30;;;;;;;;;;5003144;28;20179;-81
2022/04/27 11:27:21;;;;;;;15.18;13.07;;;;;;;;;;4972866;28;20179;-82
2022/04/27 11:29:47;;;;;;;15.02;13.02;;;;;;;;;;4984945;28;20175;-84
2022/04/27 11:32:15;;;;;;;12.90;11.27;;;;;;;;;;5004218;28;20273;-81
2022/04/27 11:34:41;;;;;;;13.57;11.75;;;;;;;;;;5002438;28;20707;-81
2022/04/27 11:37:17;;;;;;;13.55;11.68;;;;;;;;;;5003201;28;20191;-82
2022/04/27 11:39:44;;;;;;;15.32;13.07;;;;;;;;;;5002982;28;20217;-81
2022/04/27 11:42:12;;;;;;;13.55;12.10;;;;;;;;;;5003645;28;20266;-82
2022/04/27 11:44:38;;;;;;;15.13;11.40;;;;;;;;;;5005803;28;20191;-80
2022/04/27 11:47:04;;;;;;;12.20;10.73;;;;;;;;;;5003113;28;20190;-81
2022/04/27 11:49:30;;;;;;;14.05;11.57;;;;;;;;;;5002600;28;20537;-82
2022/04/27 11:51:56;;;;;;;13.30;9.93;;;;;;;;;;5002977;28;20222;-80
2022/04/27 11:54:28;;;;;;;13.38;10.80;;;;;;;;;;5003106;28;20465;-81
2022/04/27 11:57:00;;;;;;;13.02;11.63;;;;;;;;;;4999412;28;20179;-81
2022/04/27 11:59:41;;;;;;;11.48;10.27;;;;;;;;;;4999579;28;20167;-85
2022/04/27 12:02:08;;;;;;;13.93;10.77;;;;;;;;;;5003975;28;20625;-81
2022/04/27 12:04:35;;;;;;;12.77;11.15;;;;;;;;;;5000046;28;20183;-84
2022/04/27 12:07:01;;;;;;;11.55;10.45;;;;;;;;;;4988376;28;20572;-80
2022/04/27 12:09:27;;;;;;;14.63;11.70;;;;;;;;;;4986909;28;20224;-81
2022/04/27 12:11:53;;;;;;;14.67;12.57;;;;;;;;;;5004029;28;20435;-81
2022/04/27 12:14:19;;;;;;;11.13;10.02;;;;;;;;;;4988142;28;20479;-81
2022/04/27 12:16:45;;;;;;;10.27;9.27;;;;;;;;;;4988489;28;20267;-83
2022/04/27 12:19:13;;;;;;;10.57;9.50;;;;;;;;;;4988350;28;20192;-82
2022/04/27 12:21:39;;;;;;;10.95;9.82;;;;;;;;;;4987906;28;20859;-82
2022/04/27 12:24:15;;;;;;;10.38;9.43;;;;;;;;;;4986084;28;20261;-81
2022/04/27 12:26:41;;;;;;;10.77;9.83;;;;;;;;;;5001893;28;20171;-80
2022/04/27 12:29:07;;;;;;;11.60;8.87;;;;;;;;;;4983663;28;20413;-81
2022/04/27 12:31:34;;;;;;;9.70;8.77;;;;;;;;;;4987357;28;20409;-81
2022/04/27 12:34:03;;;;;;;11.27;10.17;;;;;;;;;;5001742;28;20912;-81
2022/04/27 12:39:23;;;;;;;11.53;9.00;;;;;;;;;;4987924;28;20928;-77
2022/04/27 12:41:49;;;;;;;9.20;8.30;;;;;;;;;;5004146;28;20461;-80
2022/04/27 12:44:24;;;;;;;12.30;10.23;;;;;;;;;;5002763;28;20423;-88
2022/04/27 12:46:57;;;;;;;9.37;8.57;;;;;;;;;;4987984;28;20420;-84
2022/04/27 12:49:26;;;;;;;10.23;9.13;;;;;;;;;;4984139;28;20427;-88
2022/04/27 12:51:52;;;;;;;8.87;8.03;;;;;;;;;;5001290;28;20871;-79
2022/04/27 12:54:19;;;;;;;10.47;7.80;;;;;;;;;;4985529;28;20447;-82
2022/04/27 12:56:45;;;;;;;9.77;8.83;;;;;;;;;;5005159;28;20482;-84
2022/04/27 12:59:12;;;;;;;9.47;8.63;;;;;;;;;;5003404;28;20400;-84
2022/04/27 13:01:39;;;;;;;10.57;8.47;;;;;;;;;;4986531;28;20494;-79
2022/04/27 13:04:06;;;;;;;8.70;7.80;;;;;;;;;;5000950;28;20748;-83
2022/04/27 13:06:32;;;;;;;8.07;7.30;;;;;;;;;;5001345;28;20413;-82
2022/04/27 13:11:57;;;;;;;12.90;10.10;;;;;;;;;;5000761;28;20425;-82
2022/04/27 13:14:24;;;;;;;7.77;6.63;;;;;;;;;;4998175;28;20431;-85
2022/04/27 13:16:50;;;;;;;7.83;7.13;;;;;;;;;;4998220;28;20978;-82
2022/04/27 13:19:16;;;;;;;7.00;6.00;;;;;;;;;;5000545;28;20409;-82
2022/04/27 13:21:42;;;;;;;7.77;7.10;;;;;;;;;;5000909;28;20542;-80
2022/04/27 13:24:08;;;;;;;8.23;7.63;;;;;;;;;;4984574;28;20428;-83
2022/04/27 13:26:34;;;;;;;8.07;7.27;;;;;;;;;;5004173;28;20691;-82
2022/04/27 13:29:00;;;;;;;9.50;8.33;;;;;;;;;;5001429;28;20439;-79
2022/04/27 13:31:26;;;;;;;8.77;7.83;;;;;;;;;;4999272;28;20517;-84
2022/04/27 13:33:53;;;;;;;8.60;7.80;;;;;;;;;;4999061;28;20519;-80
2022/04/27 13:36:19;;;;;;;7.47;6.87;;;;;;;;;;5001089;28;21192;-82
2022/04/27 13:38:46;;;;;;;8.70;7.80;;;;;;;;;;4986063;28;20429;-81
2022/04/27 13:41:12;;;;;;;10.93;7.30;;;;;;;;;;4988465;28;20525;-83
2022/04/27 13:43:38;;;;;;;7.80;7.10;;;;;;;;;;4996696;28;20531;-86
2022/04/27 13:46:08;;;;;;;7.43;6.73;;;;;;;;;;4986866;28;20523;-81
2022/04/27 13:48:36;;;;;;;7.67;6.97;;;;;;;;;;5001065;28;20430;-83
2022/04/27 13:51:02;;;;;;;8.37;7.50;;;;;;;;;;4984790;28;20417;-82
2022/04/27 13:53:29;;;;;;;8.17;7.33;;;;;;;;;;5002593;28;20397;-80
2022/04/27 13:55:55;;;;;;;8.10;6.73;;;;;;;;;;4986420;28;20468;-82
2022/04/27 13:58:21;;;;;;;8.77;7.97;;;;;;;;;;4987098;28;20466;-80
2022/04/27 14:00:48;;;;;;;9.50;7.63;;;;;;;;;;4986994;28;20471;-83
2022/04/27 14:03:14;;;;;;;8.77;7.67;;;;;;;;;;4985382;28;20804;-81
2022/04/27 14:05:40;;;;;;;10.50;7.80;;;;;;;;;;4986150;28;20406;-81
2022/04/27 14:08:07;;;;;;;7.77;7.07;;;;;;;;;;5000043;28;20445;-82
2022/04/27 14:10:33;;;;;;;7.10;5.90;;;;;;;;;;4986822;28;20604;-81
2022/04/27 14:13:14;;;;;;;8.07;7.37;;;;;;;;;;5000011;28;20449;-85
2022/04/27 14:18:28;;;;;;;10.63;5.82;;;;;;;;;;4986561;28;20349;-80
2022/04/27 14:20:55;;;;;;;7.25;6.65;;;;;;;;;;5003027;28;20226;-82
2022/04/27 14:23:22;;;;;;;8.50;7.72;;;;;;;;;;4986178;28;20175;-83
2022/04/27 14:25:48;;;;;;;8.18;6.20;;;;;;;;;;5000010;28;20267;-87
2022/04/27 14:28:15;;;;;;;7.57;5.93;;;;;;;;;;5001293;28;20189;-82
2022/04/27 14:30:41;;;;;;;8.15;5.35;;;;;;;;;;5004935;28;20190;-81
2022/04/27 14:33:08;;;;;;;7.70;7.00;;;;;;;;;;4986911;28;20185;-86
2022/04/27 14:35:35;;;;;;;8.13;6.22;;;;;;;;;;4991232;28;20178;-82
2022/04/27 14:38:01;;;;;;;8.10;7.35;;;;;;;;;;5005353;28;20179;-82
2022/04/27 14:40:27;;;;;;;8.90;7.13;;;;;;;;;;4989624;28;20202;-81
2022/04/27 14:42:53;;;;;;;7.10;6.07;;;;;;;;;;4990149;28;20434;-81
2022/04/27 14:45:20;;;;;;;7.30;6.60;;;;;;;;;;4987412;28;20683;-81
2022/04/27 14:47:46;;;;;;;8.13;6.90;;;;;;;;;;4990052;28;20429;-83
2022/04/27 14:50:12;;;;;;;8.40;7.15;;;;;;;;;;4989756;28;20164;-81
2022/04/27 14:52:38;;;;;;;5.83;5.30;;;;;;;;;;5003372;28;20244;-81
2022/04/27 14:55:05;;;;;;;6.65;6.00;;;;;;;;;;4989961;28;20445;-80
2022/04/27 14:57:31;;;;;;;7.50;6.70;;;;;;;;;;4989139;28;20193;-80
2022/04/27 14:59:57;;;;;;;7.30;6.65;;;;;;;;;;4987707;28;20557;-82
2022/04/27 15:02:24;;;;;;;6.75;6.15;;;;;;;;;;5004327;28;20207;-80